createdAt,value
2023-04-09T00:00:16.688Z,14.60
2023-04-09T00:02:43.912Z,14.10
2023-04-09T00:05:11.305Z,15.20
2023-04-09T00:07:38.495Z,14.53
2023-04-09T00:10:06.076Z,15.13
2023-04-09T00:12:33.227Z,14.73
2023-04-09T00:15:00.389Z,14.90
2023-04-09T00:17:27.531Z,14.40
2023-04-09T00:19:54.713Z,14.20
2023-04-09T00:22:21.800Z,14.90
2023-04-09T00:24:48.919Z,14.30
2023-04-09T00:27:16.234Z,14.07
2023-04-09T00:29:43.334Z,16.20
2023-04-09T00:32:10.472Z,15.60
2023-04-09T00:34:38.784Z,15.83
2023-04-09T00:37:06.289Z,15.47
2023-04-09T00:39:33.382Z,15.57
2023-04-09T00:42:02.953Z,15.23
2023-04-09T00:44:30.477Z,15.57
2023-04-09T00:47:00.600Z,14.83
2023-04-09T00:49:28.094Z,14.07
2023-04-09T00:51:55.359Z,15.00
2023-04-09T00:54:22.650Z,13.97
2023-04-09T00:56:49.744Z,14.67
2023-04-09T00:59:16.922Z,15.00
2023-04-09T01:01:44.072Z,15.73
2023-04-09T01:04:11.384Z,14.97
2023-04-09T01:06:58.739Z,15.70
2023-04-09T01:09:29.304Z,15.43
2023-04-09T01:11:59.524Z,15.83
2023-04-09T01:14:33.440Z,15.77
2023-04-09T01:17:04.060Z,16.63
2023-04-09T01:20:04.877Z,16.03
2023-04-09T01:22:36.726Z,15.83
2023-04-09T01:25:12.932Z,15.93
2023-04-09T01:27:58.779Z,17.50
2023-04-09T01:30:27.013Z,16.47
2023-04-09T01:32:55.387Z,16.47
2023-04-09T01:35:22.700Z,16.33
2023-04-09T01:37:50.459Z,17.13
2023-04-09T01:40:17.971Z,16.73
2023-04-09T01:42:45.895Z,17.37
2023-04-09T01:45:14.104Z,17.83
2023-04-09T01:47:42.013Z,17.87
2023-04-09T01:50:09.479Z,17.37
2023-04-09T01:52:36.760Z,18.73
2023-04-09T01:55:03.947Z,18.23
2023-04-09T01:57:31.764Z,17.53
2023-04-09T01:59:58.882Z,16.90
2023-04-09T02:02:31.792Z,16.70
2023-04-09T02:04:59.647Z,16.37
2023-04-09T02:07:35.069Z,16.33
2023-04-09T02:10:02.549Z,16.07
2023-04-09T02:12:30.900Z,16.00
2023-04-09T02:14:59.144Z,16.60
2023-04-09T02:17:26.311Z,15.63
2023-04-09T02:19:53.475Z,16.07
2023-04-09T02:22:20.644Z,15.90
2023-04-09T02:24:47.829Z,15.80
2023-04-09T02:27:14.955Z,15.80
2023-04-09T02:29:42.171Z,15.73
2023-04-09T02:32:09.453Z,16.20
2023-04-09T02:34:36.637Z,16.43
2023-04-09T02:37:03.749Z,15.80
2023-04-09T02:39:30.900Z,15.63
2023-04-09T02:41:58.018Z,15.63
2023-04-09T02:44:25.187Z,17.23
2023-04-09T02:46:52.760Z,16.83
2023-04-09T02:49:19.913Z,15.83
2023-04-09T02:51:47.022Z,17.20
2023-04-09T02:54:14.155Z,16.37
2023-04-09T02:56:41.286Z,17.10
2023-04-09T02:59:08.398Z,16.50
2023-04-09T03:01:35.691Z,16.87
2023-04-09T03:04:03.062Z,17.47
2023-04-09T03:06:30.254Z,17.13
2023-04-09T03:08:57.377Z,17.07
2023-04-09T03:11:24.563Z,16.60
2023-04-09T03:13:51.694Z,16.87
2023-04-09T03:16:18.962Z,17.43
2023-04-09T03:18:46.228Z,17.87
2023-04-09T03:21:15.059Z,18.87
2023-04-09T03:23:42.387Z,19.60
2023-04-09T03:26:09.494Z,18.97
2023-04-09T03:28:36.676Z,18.27
2023-04-09T03:31:03.824Z,19.57
2023-04-09T03:33:30.993Z,19.67
2023-04-09T03:35:58.128Z,18.83
2023-04-09T03:38:25.352Z,20.10
2023-04-09T03:40:52.493Z,19.03
2023-04-09T03:43:19.624Z,19.87
2023-04-09T03:45:46.734Z,20.30
2023-04-09T03:48:13.875Z,19.07
2023-04-09T03:50:41.568Z,20.03
2023-04-09T03:53:08.850Z,20.00
2023-04-09T03:55:36.492Z,19.83
2023-04-09T03:58:03.590Z,19.70
2023-04-09T04:00:30.803Z,19.33
2023-04-09T04:02:58.192Z,19.90
2023-04-09T04:05:26.306Z,20.20
2023-04-09T04:07:53.677Z,20.07
2023-04-09T04:10:20.869Z,21.20
2023-04-09T04:12:48.067Z,21.23
2023-04-09T04:15:15.565Z,19.97
2023-04-09T04:17:42.778Z,20.90
2023-04-09T04:20:10.218Z,19.63
2023-04-09T04:22:37.387Z,19.87
2023-04-09T04:25:05.392Z,19.57
2023-04-09T04:27:32.587Z,20.47
2023-04-09T04:30:01.983Z,19.33
2023-04-09T04:32:29.247Z,19.20
2023-04-09T04:34:56.372Z,20.60
2023-04-09T04:37:23.552Z,20.43
2023-04-09T04:39:50.796Z,20.50
2023-04-09T04:42:18.281Z,21.23
2023-04-09T04:44:45.815Z,20.60
2023-04-09T04:47:12.936Z,20.77
2023-04-09T04:49:40.246Z,20.33
2023-04-09T04:52:07.806Z,21.67
2023-04-09T04:54:34.998Z,20.43
2023-04-09T04:57:02.239Z,20.93
2023-04-09T04:59:29.560Z,21.80
2023-04-09T05:01:56.774Z,21.80
2023-04-09T05:04:24.000Z,23.13
2023-04-09T05:06:51.461Z,23.37
2023-04-09T05:09:20.499Z,21.50
2023-04-09T05:11:49.045Z,18.90
2023-04-09T05:14:16.195Z,18.47
2023-04-09T05:16:43.389Z,19.37
2023-04-09T05:19:10.499Z,17.87
2023-04-09T05:21:37.622Z,17.73
2023-04-09T05:24:05.338Z,17.50
2023-04-09T05:26:32.453Z,16.43
2023-04-09T05:28:59.597Z,16.70
2023-04-09T05:31:26.746Z,16.20
2023-04-09T05:33:53.987Z,17.70
2023-04-09T05:36:21.231Z,17.03
2023-04-09T05:38:48.538Z,16.20
2023-04-09T05:41:15.759Z,15.77
2023-04-09T05:43:43.084Z,16.07
2023-04-09T05:46:10.785Z,15.73
2023-04-09T05:48:38.090Z,15.33
2023-04-09T05:51:05.212Z,15.10
2023-04-09T05:53:32.787Z,15.37
2023-04-09T05:55:59.943Z,16.67
2023-04-09T05:58:28.920Z,15.70
2023-04-09T06:00:56.156Z,16.33
2023-04-09T06:03:23.362Z,15.75
2023-04-09T06:05:50.592Z,15.90
2023-04-09T06:08:17.800Z,15.15
2023-04-09T06:10:44.929Z,15.90
2023-04-09T06:13:12.104Z,13.48
2023-04-09T06:15:39.575Z,15.95
2023-04-09T06:18:06.999Z,14.85
2023-04-09T06:20:34.717Z,14.65
2023-04-09T06:23:01.906Z,15.63
2023-04-09T06:25:29.150Z,15.87
2023-04-09T06:27:56.718Z,15.57
2023-04-09T06:30:23.839Z,15.63
2023-04-09T06:32:55.100Z,16.17
2023-04-09T06:35:22.803Z,16.57
2023-04-09T06:37:49.997Z,15.80
2023-04-09T06:40:17.265Z,16.43
2023-04-09T06:42:44.505Z,16.53
2023-04-09T06:45:11.724Z,16.23
2023-04-09T06:47:38.859Z,15.13
2023-04-09T06:50:06.250Z,15.87
2023-04-09T06:52:33.476Z,16.63
2023-04-09T06:55:00.926Z,17.00
2023-04-09T06:57:28.025Z,17.20
2023-04-09T06:59:55.712Z,17.03
2023-04-09T07:02:22.978Z,16.73
2023-04-09T07:04:50.681Z,16.60
2023-04-09T07:07:18.563Z,17.43
2023-04-09T07:09:45.894Z,17.23
2023-04-09T07:12:13.019Z,15.73
2023-04-09T07:14:40.206Z,15.73
2023-04-09T07:17:07.309Z,16.40
2023-04-09T07:19:34.404Z,15.07
2023-04-09T07:22:01.545Z,15.55
2023-04-09T07:24:28.698Z,15.85
2023-04-09T07:26:56.323Z,15.13
2023-04-09T07:29:23.503Z,15.50
2023-04-09T07:31:50.949Z,15.13
2023-04-09T07:34:18.155Z,15.37
2023-04-09T07:36:45.269Z,15.73
2023-04-09T07:39:12.391Z,15.37
2023-04-09T07:41:39.510Z,15.90
2023-04-09T07:44:07.543Z,15.13
2023-04-09T07:46:34.759Z,15.27
2023-04-09T07:49:01.904Z,15.20
2023-04-09T07:51:29.019Z,16.77
2023-04-09T07:53:56.150Z,15.13
2023-04-09T07:56:23.265Z,14.30
2023-04-09T07:58:50.899Z,14.55
2023-04-09T08:01:18.151Z,14.75
2023-04-09T08:03:45.479Z,14.20
2023-04-09T08:06:12.731Z,13.57
2023-04-09T08:08:39.898Z,14.23
2023-04-09T08:11:07.653Z,14.48
2023-04-09T08:13:34.866Z,14.13
2023-04-09T08:16:02.394Z,14.40
2023-04-09T08:18:29.711Z,14.32
2023-04-09T08:20:57.892Z,14.55
2023-04-09T08:23:25.339Z,15.00
2023-04-09T08:25:52.503Z,14.68
2023-04-09T08:28:19.637Z,13.75
2023-04-09T08:30:47.740Z,13.07
2023-04-09T08:33:15.279Z,13.95
2023-04-09T08:35:42.602Z,12.95
2023-04-09T08:38:09.832Z,13.63
2023-04-09T08:40:37.061Z,14.40
2023-04-09T08:43:08.971Z,12.95
2023-04-09T08:45:36.559Z,13.60
2023-04-09T08:48:04.540Z,14.45
2023-04-09T08:50:33.837Z,12.82
2023-04-09T08:53:03.060Z,12.10
2023-04-09T08:55:31.235Z,12.68
2023-04-09T08:57:58.522Z,12.40
2023-04-09T09:00:25.668Z,13.00
2023-04-09T09:03:06.981Z,13.15
2023-04-09T09:05:36.264Z,14.63
2023-04-09T09:08:03.393Z,13.93
2023-04-09T09:10:40.607Z,12.38
2023-04-09T09:13:36.922Z,12.82
2023-04-09T09:16:15.082Z,13.40
2023-04-09T09:18:43.196Z,12.88
2023-04-09T09:21:11.586Z,13.70
2023-04-09T09:23:38.747Z,14.48
2023-04-09T09:26:35.015Z,13.25
2023-04-09T09:29:05.748Z,13.65
2023-04-09T09:31:46.168Z,12.68
2023-04-09T09:34:13.416Z,12.23
2023-04-09T09:36:40.573Z,13.05
2023-04-09T09:39:10.618Z,12.68
2023-04-09T09:41:38.035Z,11.88
2023-04-09T09:44:07.245Z,12.77
2023-04-09T09:46:35.758Z,12.07
2023-04-09T09:49:03.117Z,12.57
2023-04-09T09:51:32.464Z,12.90
2023-04-09T09:53:59.825Z,13.10
2023-04-09T09:56:32.801Z,13.75
2023-04-09T09:59:07.846Z,11.40
2023-04-09T10:01:36.572Z,10.77
2023-04-09T10:04:06.387Z,11.27
2023-04-09T10:06:34.550Z,9.95
2023-04-09T10:09:06.825Z,10.52
2023-04-09T10:11:34.498Z,10.30
2023-04-09T10:14:02.493Z,10.05
2023-04-09T10:16:29.814Z,10.57
2023-04-09T10:18:57.776Z,9.95
2023-04-09T10:21:46.229Z,9.98
2023-04-09T10:24:13.472Z,9.20
2023-04-09T10:26:42.142Z,9.10
2023-04-09T10:29:13.794Z,8.48
2023-04-09T10:32:04.622Z,7.45
2023-04-09T10:34:35.288Z,8.32
2023-04-09T10:37:02.968Z,8.40
2023-04-09T10:39:33.953Z,7.30
2023-04-09T10:42:05.561Z,7.22
2023-04-09T10:44:32.823Z,8.57
2023-04-09T10:47:00.078Z,8.13
2023-04-09T10:49:28.102Z,9.18
2023-04-09T10:52:02.423Z,8.35
2023-04-09T10:54:36.143Z,8.40
2023-04-09T10:57:09.494Z,8.75
2023-04-09T10:59:43.313Z,8.50
2023-04-09T11:02:21.271Z,8.30
2023-04-09T11:04:56.950Z,7.68
2023-04-09T11:07:24.836Z,8.02
2023-04-09T11:09:51.930Z,7.90
2023-04-09T11:12:19.090Z,8.10
2023-04-09T11:14:46.177Z,7.80
2023-04-09T11:17:13.831Z,8.30
2023-04-09T11:19:40.987Z,8.30
2023-04-09T11:22:08.234Z,8.23
2023-04-09T11:24:44.894Z,7.47
2023-04-09T11:27:12.062Z,8.20
2023-04-09T11:29:39.534Z,7.13
2023-04-09T11:32:06.709Z,7.20
2023-04-09T11:34:33.920Z,7.35
2023-04-09T11:37:05.353Z,8.20
2023-04-09T11:39:32.477Z,7.60
2023-04-09T11:41:59.686Z,7.53
2023-04-09T11:44:26.762Z,7.63
2023-04-09T11:46:53.960Z,6.80
2023-04-09T11:49:21.622Z,7.20
2023-04-09T11:51:48.931Z,6.20
2023-04-09T11:54:16.028Z,5.93
2023-04-09T11:56:43.142Z,6.03
2023-04-09T11:59:10.667Z,5.90
2023-04-09T12:01:37.859Z,6.13
2023-04-09T12:04:06.900Z,5.47
2023-04-09T12:06:34.366Z,6.15
2023-04-09T12:09:02.049Z,5.35
2023-04-09T12:11:29.918Z,6.03
2023-04-09T12:14:01.389Z,5.78
2023-04-09T12:16:31.518Z,6.07
2023-04-09T12:19:06.632Z,6.45
2023-04-09T12:21:47.916Z,6.15
2023-04-09T12:24:15.353Z,5.32
2023-04-09T12:26:42.478Z,5.75
2023-04-09T12:29:09.622Z,6.30
2023-04-09T12:31:36.822Z,6.45
2023-04-09T12:34:03.957Z,5.90
2023-04-09T12:36:31.130Z,5.50
2023-04-09T12:38:58.311Z,5.88
2023-04-09T12:41:25.484Z,7.10
2023-04-09T12:43:52.870Z,6.50
2023-04-09T12:46:20.312Z,5.93
2023-04-09T12:48:47.836Z,6.18
2023-04-09T12:51:14.972Z,6.30
2023-04-09T12:53:42.121Z,5.90
2023-04-09T12:56:09.413Z,6.03
2023-04-09T12:58:37.783Z,6.30
2023-04-09T13:01:06.672Z,5.90
2023-04-09T13:03:34.084Z,5.40
2023-04-09T13:06:01.338Z,5.93
2023-04-09T13:08:28.520Z,5.90
2023-04-09T13:10:55.798Z,5.90
2023-04-09T13:13:22.984Z,6.60
2023-04-09T13:15:50.088Z,6.07
2023-04-09T13:18:17.168Z,6.32
2023-04-09T13:20:44.293Z,5.57
2023-04-09T13:23:11.463Z,6.07
2023-04-09T13:25:38.635Z,6.60
2023-04-09T13:28:05.762Z,6.07
2023-04-09T13:30:32.969Z,6.40
2023-04-09T13:33:00.268Z,6.10
2023-04-09T13:35:27.772Z,5.60
2023-04-09T13:37:54.861Z,6.35
2023-04-09T13:40:21.975Z,7.00
2023-04-09T13:42:49.069Z,7.07
2023-04-09T13:45:16.631Z,6.80
2023-04-09T13:47:43.728Z,7.10
2023-04-09T13:50:13.036Z,7.03
2023-04-09T13:52:40.256Z,7.22
2023-04-09T13:55:08.025Z,6.63
2023-04-09T13:57:35.209Z,7.50
2023-04-09T14:00:04.738Z,6.53
2023-04-09T14:02:32.629Z,6.40
2023-04-09T14:04:59.973Z,6.18
2023-04-09T14:07:27.160Z,6.68
2023-04-09T14:09:54.261Z,7.35
2023-04-09T14:12:21.610Z,7.40
2023-04-09T14:14:49.904Z,7.32
2023-04-09T14:17:17.007Z,7.13
2023-04-09T14:19:44.136Z,6.80
2023-04-09T14:22:11.557Z,7.22
2023-04-09T14:24:40.058Z,7.40
2023-04-09T14:27:08.222Z,7.57
2023-04-09T14:29:36.532Z,6.90
2023-04-09T14:32:03.695Z,7.23
2023-04-09T14:34:34.107Z,8.27
2023-04-09T14:37:01.232Z,7.63
2023-04-09T14:39:28.321Z,7.07
2023-04-09T14:41:57.123Z,7.00
2023-04-09T14:44:27.205Z,6.50
2023-04-09T14:46:55.205Z,7.30
2023-04-09T14:49:22.489Z,6.53
2023-04-09T14:51:49.688Z,6.10
2023-04-09T14:54:16.830Z,6.47
2023-04-09T14:56:43.937Z,6.73
2023-04-09T14:59:11.074Z,6.57
2023-04-09T15:01:38.297Z,5.93
2023-04-09T15:04:05.561Z,6.07
2023-04-09T15:06:32.953Z,6.15
2023-04-09T15:09:00.191Z,5.28
2023-04-09T15:11:28.061Z,5.68
2023-04-09T15:13:56.301Z,5.65
2023-04-09T15:16:28.844Z,6.57
2023-04-09T15:18:58.554Z,6.60
2023-04-09T15:21:27.035Z,6.70
2023-04-09T15:23:54.217Z,6.80
2023-04-09T15:26:21.360Z,6.77
2023-04-09T15:28:48.701Z,6.27
2023-04-09T15:31:16.168Z,6.70
2023-04-09T15:33:44.706Z,6.77
2023-04-09T15:36:12.034Z,6.87
2023-04-09T15:38:39.215Z,7.03
2023-04-09T15:41:06.347Z,6.60
2023-04-09T15:43:33.566Z,7.80
2023-04-09T15:46:00.931Z,6.60
2023-04-09T15:48:28.064Z,7.22
2023-04-09T15:50:55.305Z,6.25
2023-04-09T15:53:26.611Z,6.15
2023-04-09T15:55:53.864Z,6.60
2023-04-09T15:58:21.028Z,6.60
2023-04-09T16:00:51.346Z,6.30
2023-04-09T16:03:19.335Z,6.37
2023-04-09T16:05:47.682Z,6.63
2023-04-09T16:08:14.945Z,6.40
2023-04-09T16:10:42.098Z,6.13
2023-04-09T16:13:09.272Z,6.60
2023-04-09T16:15:36.536Z,6.40
2023-04-09T16:18:03.724Z,6.70
2023-04-09T16:20:31.281Z,7.17
2023-04-09T16:22:58.468Z,7.50
2023-04-09T16:25:25.805Z,8.33
2023-04-09T16:27:52.914Z,7.30
2023-04-09T16:30:20.253Z,7.50
2023-04-09T16:32:47.430Z,7.70
2023-04-09T16:35:14.696Z,9.23
2023-04-09T16:37:41.793Z,8.70
2023-04-09T16:40:09.188Z,10.80
2023-04-09T16:42:36.791Z,8.57
2023-04-09T16:45:04.630Z,9.47
2023-04-09T16:47:32.069Z,9.80
2023-04-09T16:49:59.257Z,7.27
2023-04-09T16:52:27.751Z,8.60
2023-04-09T16:54:55.459Z,7.90
2023-04-09T16:59:49.759Z,7.30
2023-04-09T17:02:16.896Z,6.80
2023-04-09T17:04:44.022Z,8.70
2023-04-09T17:07:11.149Z,7.40
2023-04-09T17:09:38.235Z,8.03
2023-04-09T17:12:05.352Z,6.90
2023-04-09T17:14:33.761Z,6.77
2023-04-09T17:17:01.153Z,6.20
2023-04-09T17:19:28.278Z,6.87
2023-04-09T17:21:55.395Z,7.10
2023-04-09T17:24:22.524Z,6.90
2023-04-09T17:26:49.680Z,6.77
2023-04-09T17:29:17.301Z,13.10
2023-04-09T17:31:44.909Z,17.53
2023-04-09T17:34:13.538Z,36.93
2023-04-09T17:36:41.423Z,26.33
2023-04-09T17:39:08.722Z,20.20
2023-04-09T17:41:36.436Z,14.03
2023-04-09T17:44:03.571Z,13.30
2023-04-09T17:46:30.856Z,10.27
2023-04-09T17:48:58.105Z,10.03
2023-04-09T17:51:26.528Z,12.10
2023-04-09T17:53:54.269Z,25.87
2023-04-09T17:56:22.744Z,24.80
2023-04-09T17:58:50.040Z,22.07
2023-04-09T18:01:17.462Z,13.33
2023-04-09T18:03:46.175Z,8.97
2023-04-09T18:06:15.335Z,8.70
2023-04-09T18:08:43.374Z,12.13
2023-04-09T18:11:13.186Z,9.20
2023-04-09T18:13:41.313Z,8.30
2023-04-09T18:16:12.194Z,9.30
2023-04-09T18:18:39.686Z,14.00
2023-04-09T18:21:06.900Z,23.80
2023-04-09T18:23:34.073Z,23.20
2023-04-09T18:26:01.194Z,28.40
2023-04-09T18:28:28.400Z,18.77
2023-04-09T18:30:55.859Z,13.30
2023-04-09T18:33:23.057Z,11.03
2023-04-09T18:35:50.394Z,7.87
2023-04-09T18:38:17.877Z,7.27
2023-04-09T18:40:45.195Z,8.40
2023-04-09T18:43:12.481Z,8.00
2023-04-09T18:45:39.776Z,7.93
2023-04-09T18:48:08.570Z,7.67
2023-04-09T18:50:36.141Z,7.57
2023-04-09T18:53:03.641Z,7.83
2023-04-09T18:55:31.073Z,8.90
2023-04-09T18:57:58.373Z,10.47
2023-04-09T19:00:25.557Z,13.40
2023-04-09T19:02:52.850Z,10.83
2023-04-09T19:05:20.251Z,15.30
2023-04-09T19:07:47.371Z,12.60
2023-04-09T19:10:14.532Z,12.60
2023-04-09T19:12:48.420Z,9.43
2023-04-09T19:15:16.100Z,9.17
2023-04-09T19:17:43.420Z,8.73
2023-04-09T19:20:10.761Z,7.57
2023-04-09T19:22:37.928Z,8.50
2023-04-09T19:25:07.361Z,8.93
2023-04-09T19:27:34.537Z,9.23
2023-04-09T19:30:01.741Z,11.30
2023-04-09T19:32:28.984Z,11.20
2023-04-09T19:34:56.254Z,10.70
2023-04-09T19:37:27.884Z,10.97
2023-04-09T19:39:55.810Z,11.50
2023-04-09T19:42:23.108Z,10.37
2023-04-09T19:44:50.230Z,11.17
2023-04-09T19:47:17.522Z,11.30
2023-04-09T19:49:44.868Z,10.20
2023-04-09T19:52:12.074Z,11.23
2023-04-09T19:54:39.256Z,11.37
2023-04-09T19:57:06.380Z,11.13
2023-04-09T19:59:36.274Z,12.07
2023-04-09T20:02:03.767Z,11.90
2023-04-09T20:04:31.224Z,11.17
2023-04-09T20:06:58.364Z,10.07
2023-04-09T20:09:27.661Z,9.70
2023-04-09T20:11:54.897Z,9.60
2023-04-09T20:14:22.472Z,10.67
2023-04-09T20:16:49.699Z,10.47
2023-04-09T20:19:17.140Z,10.33
2023-04-09T20:21:44.300Z,10.73
2023-04-09T20:24:11.427Z,11.03
2023-04-09T20:26:38.607Z,11.33
2023-04-09T20:29:06.352Z,11.27
2023-04-09T20:31:35.048Z,11.37
2023-04-09T20:34:02.870Z,11.57
2023-04-09T20:36:30.309Z,11.20
2023-04-09T20:38:57.410Z,11.10
2023-04-09T20:41:24.560Z,11.47
2023-04-09T20:43:51.702Z,10.93
2023-04-09T20:46:19.062Z,11.30
2023-04-09T20:48:46.266Z,11.83
2023-04-09T20:51:14.428Z,11.77
2023-04-09T20:53:41.605Z,10.77
2023-04-09T20:56:09.477Z,11.13
2023-04-09T20:58:37.088Z,10.53
2023-04-09T21:01:09.381Z,9.70
2023-04-09T21:03:40.165Z,10.00
2023-04-09T21:06:08.352Z,10.77
2023-04-09T21:08:36.440Z,11.13
2023-04-09T21:11:03.617Z,11.63
2023-04-09T21:13:40.286Z,11.43
2023-04-09T21:16:18.135Z,12.17
2023-04-09T21:18:45.553Z,11.73
2023-04-09T21:21:14.160Z,11.77
2023-04-09T21:23:41.578Z,12.17
2023-04-09T21:26:10.059Z,13.33
2023-04-09T21:28:37.231Z,16.70
2023-04-09T21:31:04.420Z,13.03
2023-04-09T21:33:31.579Z,12.43
2023-04-09T21:35:58.797Z,12.93
2023-04-09T21:38:26.077Z,12.20
2023-04-09T21:40:53.217Z,12.03
2023-04-09T21:43:20.336Z,11.90
2023-04-09T21:45:47.500Z,12.30
2023-04-09T21:48:14.653Z,10.93
2023-04-09T21:50:41.926Z,10.83
2023-04-09T21:53:09.064Z,10.03
2023-04-09T21:55:37.159Z,9.87
2023-04-09T21:58:04.295Z,11.03
2023-04-09T22:00:32.090Z,11.27
2023-04-09T22:03:01.489Z,11.07
2023-04-09T22:05:29.075Z,12.40
2023-04-09T22:07:56.561Z,12.23
2023-04-09T22:10:24.186Z,12.43
2023-04-09T22:12:51.428Z,13.43
2023-04-09T22:15:19.612Z,13.53
2023-04-09T22:17:47.406Z,14.00
2023-04-09T22:20:14.711Z,13.30
2023-04-09T22:22:42.405Z,12.93
2023-04-09T22:25:11.169Z,12.80
2023-04-09T22:27:38.944Z,13.33
2023-04-09T22:30:06.778Z,13.60
2023-04-09T22:32:34.099Z,13.80
2023-04-09T22:35:01.451Z,13.27
2023-04-09T22:37:28.589Z,13.67
2023-04-09T22:39:55.946Z,13.77
2023-04-09T22:42:24.381Z,13.67
2023-04-09T22:44:51.512Z,13.70
2023-04-09T22:47:18.710Z,13.97
2023-04-09T22:49:46.159Z,15.00
2023-04-09T22:52:13.333Z,14.40
2023-04-09T22:54:41.406Z,14.47
2023-04-09T22:57:08.554Z,15.20
2023-04-09T23:02:06.143Z,14.40
2023-04-09T23:04:34.844Z,14.40
2023-04-09T23:07:02.511Z,14.93
2023-04-09T23:09:31.081Z,15.00
2023-04-09T23:11:58.243Z,15.20
2023-04-09T23:14:25.370Z,15.53
2023-04-09T23:16:52.512Z,15.23
2023-04-09T23:19:19.609Z,14.83
2023-04-09T23:21:46.728Z,15.40
2023-04-09T23:24:13.903Z,14.63
2023-04-09T23:26:41.342Z,14.57
2023-04-09T23:29:08.511Z,15.33
2023-04-09T23:31:35.764Z,14.37
2023-04-09T23:34:02.894Z,15.57
2023-04-09T23:36:30.946Z,15.33
2023-04-09T23:38:58.112Z,14.40
2023-04-09T23:41:26.223Z,15.17
2023-04-09T23:43:53.499Z,15.27
2023-04-09T23:46:20.818Z,15.57
2023-04-09T23:48:47.962Z,16.17
2023-04-09T23:51:18.673Z,15.13
2023-04-09T23:53:46.193Z,15.30
2023-04-09T23:56:14.440Z,16.37
2023-04-09T23:58:41.579Z,16.10
